Lansing, New York
Current Conditions -  °F | °C
As of 8:56 PM on Thursday 20 Nov 2014 (Local Time) from KITH Reporting Station
Broken Clouds Broken Clouds  
Wind Chill: 12°   Ceiling: 4500
Heat Index: 24°   Visibility: 10mi
Dew Point: 11°   Wind: 13mph
Humidity: 58%   Direction: 290°WNW
Pressure: 29.95"   Gusts: 22mph
Location:  42.48°N, 76.48°W
Report Text: KITH 210156Z 29011G19KT 10SM BKN045 M04/M12 A2995 RMK AO2 T10441116 SNE08 P0000 SLP155
Loading
Personal Weather Stations






























Interactive Weather Map New forecast layout! Learn more

10-Day Weather Forecast

Advertisements
Track Severe Weather on mobile